sensor_id;sensor_type;location;lat;lon;timestamp;temperature;humidity
1570;DHT22;778;50.120;8.698;2022-09-27T00:01:18;11.60;99.90
1570;DHT22;778;50.120;8.698;2022-09-27T00:03:46;11.70;99.90
1570;DHT22;778;50.120;8.698;2022-09-27T00:06:19;11.70;99.90
1570;DHT22;778;50.120;8.698;2022-09-27T00:08:50;11.70;99.90
1570;DHT22;778;50.120;8.698;2022-09-27T00:11:24;11.60;99.90
1570;DHT22;778;50.120;8.698;2022-09-27T00:13:54;11.50;99.90
1570;DHT22;778;50.120;8.698;2022-09-27T00:16:26;11.60;99.90
1570;DHT22;778;50.120;8.698;2022-09-27T00:18:57;11.60;99.90
1570;DHT22;778;50.120;8.698;2022-09-27T00:21:27;11.50;99.90
1570;DHT22;778;50.120;8.698;2022-09-27T00:23:58;11.60;99.90
1570;DHT22;778;50.120;8.698;2022-09-27T00:26:27;11.60;99.90
1570;DHT22;778;50.120;8.698;2022-09-27T00:28:56;11.60;99.90
1570;DHT22;778;50.120;8.698;2022-09-27T00:31:28;11.70;99.90
1570;DHT22;778;50.120;8.698;2022-09-27T00:33:59;11.70;99.90
1570;DHT22;778;50.120;8.698;2022-09-27T00:36:29;11.70;99.90
1570;DHT22;778;50.120;8.698;2022-09-27T00:38:59;11.70;99.90
1570;DHT22;778;50.120;8.698;2022-09-27T00:41:30;11.70;99.90
1570;DHT22;778;50.120;8.698;2022-09-27T00:44:01;11.70;99.90
1570;DHT22;778;50.120;8.698;2022-09-27T00:46:37;11.70;99.90
1570;DHT22;778;50.120;8.698;2022-09-27T00:49:13;11.80;99.90
1570;DHT22;778;50.120;8.698;2022-09-27T00:51:48;11.70;99.90
1570;DHT22;778;50.120;8.698;2022-09-27T00:54:19;11.80;99.90
1570;DHT22;778;50.120;8.698;2022-09-27T00:56:50;11.80;99.90
1570;DHT22;778;50.120;8.698;2022-09-27T00:59:22;11.80;99.90
1570;DHT22;778;50.120;8.698;2022-09-27T01:01:55;11.70;99.90
1570;DHT22;778;50.120;8.698;2022-09-27T01:04:27;11.60;99.90
1570;DHT22;778;50.120;8.698;2022-09-27T01:06:57;11.60;99.90
1570;DHT22;778;50.120;8.698;2022-09-27T01:09:26;11.70;99.90
1570;DHT22;778;50.120;8.698;2022-09-27T01:12:03;11.80;99.90
1570;DHT22;778;50.120;8.698;2022-09-27T01:14:44;11.70;99.90
1570;DHT22;778;50.120;8.698;2022-09-27T01:17:36;11.70;99.90
1570;DHT22;778;50.120;8.698;2022-09-27T01:20:28;11.80;99.90
1570;DHT22;778;50.120;8.698;2022-09-27T01:30:27;11.70;99.90
1570;DHT22;778;50.120;8.698;2022-09-27T01:33:23;11.80;99.90
1570;DHT22;778;50.120;8.698;2022-09-27T01:36:05;11.80;99.90
1570;DHT22;778;50.120;8.698;2022-09-27T01:38:44;11.80;99.90
1570;DHT22;778;50.120;8.698;2022-09-27T01:41:25;11.80;99.90
1570;DHT22;778;50.120;8.698;2022-09-27T01:44:04;11.80;99.90
1570;DHT22;778;50.120;8.698;2022-09-27T01:46:45;11.70;99.90
1570;DHT22;778;50.120;8.698;2022-09-27T01:49:25;11.80;99.90
1570;DHT22;778;50.120;8.698;2022-09-27T01:51:59;11.80;99.90
1570;DHT22;778;50.120;8.698;2022-09-27T01:54:35;11.80;99.90
1570;DHT22;778;50.120;8.698;2022-09-27T01:57:29;11.80;99.90
1570;DHT22;778;50.120;8.698;2022-09-27T02:00:05;11.70;99.90
1570;DHT22;778;50.120;8.698;2022-09-27T02:02:46;11.60;99.90
1570;DHT22;778;50.120;8.698;2022-09-27T02:05:21;11.70;99.90
1570;DHT22;778;50.120;8.698;2022-09-27T02:08:00;11.70;99.90
1570;DHT22;778;50.120;8.698;2022-09-27T02:10:34;11.70;99.90
1570;DHT22;778;50.120;8.698;2022-09-27T02:13:16;11.70;99.90
1570;DHT22;778;50.120;8.698;2022-09-27T02:15:55;11.70;99.90
1570;DHT22;778;50.120;8.698;2022-09-27T02:18:45;11.70;99.90
1570;DHT22;778;50.120;8.698;2022-09-27T02:21:20;11.70;99.90
1570;DHT22;778;50.120;8.698;2022-09-27T02:23:58;11.80;99.90
1570;DHT22;778;50.120;8.698;2022-09-27T02:26:33;11.80;99.90
1570;DHT22;778;50.120;8.698;2022-09-27T02:29:07;11.80;99.90
1570;DHT22;778;50.120;8.698;2022-09-27T02:31:45;11.70;99.90
1570;DHT22;778;50.120;8.698;2022-09-27T02:34:17;11.70;99.90
1570;DHT22;778;50.120;8.698;2022-09-27T02:36:47;11.70;99.90
1570;DHT22;778;50.120;8.698;2022-09-27T02:39:20;11.60;99.90
1570;DHT22;778;50.120;8.698;2022-09-27T02:41:57;11.70;99.90
1570;DHT22;778;50.120;8.698;2022-09-27T02:44:27;11.70;99.90
1570;DHT22;778;50.120;8.698;2022-09-27T02:47:17;11.70;99.90
1570;DHT22;778;50.120;8.698;2022-09-27T02:50:02;11.70;99.90
1570;DHT22;778;50.120;8.698;2022-09-27T02:52:51;11.60;99.90
1570;DHT22;778;50.120;8.698;2022-09-27T02:55:41;11.70;99.90
1570;DHT22;778;50.120;8.698;2022-09-27T02:58:59;11.70;99.90
1570;DHT22;778;50.120;8.698;2022-09-27T03:02:08;11.70;99.90
1570;DHT22;778;50.120;8.698;2022-09-27T03:05:21;11.60;99.90
1570;DHT22;778;50.120;8.698;2022-09-27T03:07:52;11.70;99.90
1570;DHT22;778;50.120;8.698;2022-09-27T03:10:23;11.70;99.90
1570;DHT22;778;50.120;8.698;2022-09-27T03:12:53;11.60;99.90
1570;DHT22;778;50.120;8.698;2022-09-27T03:15:22;11.60;99.90
1570;DHT22;778;50.120;8.698;2022-09-27T03:18:00;11.70;99.90
1570;DHT22;778;50.120;8.698;2022-09-27T03:20:48;11.60;99.90
1570;DHT22;778;50.120;8.698;2022-09-27T03:23:18;11.70;99.90
1570;DHT22;778;50.120;8.698;2022-09-27T03:25:48;11.60;99.90
1570;DHT22;778;50.120;8.698;2022-09-27T03:28:17;11.60;99.90
1570;DHT22;778;50.120;8.698;2022-09-27T03:30:47;11.60;99.90
1570;DHT22;778;50.120;8.698;2022-09-27T03:33:36;11.50;99.90
1570;DHT22;778;50.120;8.698;2022-09-27T03:36:09;11.50;99.90
1570;DHT22;778;50.120;8.698;2022-09-27T03:38:38;11.40;99.90
1570;DHT22;778;50.120;8.698;2022-09-27T03:41:11;11.40;99.90
1570;DHT22;778;50.120;8.698;2022-09-27T03:43:39;11.40;99.90
1570;DHT22;778;50.120;8.698;2022-09-27T03:46:08;11.40;99.90
1570;DHT22;778;50.120;8.698;2022-09-27T03:48:37;11.40;99.90
1570;DHT22;778;50.120;8.698;2022-09-27T03:51:06;11.30;99.90
1570;DHT22;778;50.120;8.698;2022-09-27T03:53:36;11.30;99.90
1570;DHT22;778;50.120;8.698;2022-09-27T03:56:05;11.30;99.90
1570;DHT22;778;50.120;8.698;2022-09-27T03:58:33;11.30;99.90
1570;DHT22;778;50.120;8.698;2022-09-27T04:01:03;11.30;99.90
1570;DHT22;778;50.120;8.698;2022-09-27T04:03:33;11.20;99.90
1570;DHT22;778;50.120;8.698;2022-09-27T04:06:26;11.20;99.90
1570;DHT22;778;50.120;8.698;2022-09-27T04:08:56;11.20;99.90
1570;DHT22;778;50.120;8.698;2022-09-27T04:11:37;11.20;99.90
1570;DHT22;778;50.120;8.698;2022-09-27T04:14:06;11.20;99.90
1570;DHT22;778;50.120;8.698;2022-09-27T04:16:44;11.10;99.90
1570;DHT22;778;50.120;8.698;2022-09-27T04:19:31;11.10;99.90
1570;DHT22;778;50.120;8.698;2022-09-27T04:22:08;11.10;99.90
1570;DHT22;778;50.120;8.698;2022-09-27T04:24:38;11.00;99.90
1570;DHT22;778;50.120;8.698;2022-09-27T04:27:29;11.10;99.90
1570;DHT22;778;50.120;8.698;2022-09-27T04:29:58;11.10;99.90
1570;DHT22;778;50.120;8.698;2022-09-27T04:32:47;11.10;99.90
1570;DHT22;778;50.120;8.698;2022-09-27T04:35:37;11.20;99.90
1570;DHT22;778;50.120;8.698;2022-09-27T04:38:23;11.10;99.90
1570;DHT22;778;50.120;8.698;2022-09-27T04:40:53;11.10;99.90
1570;DHT22;778;50.120;8.698;2022-09-27T04:43:22;11.10;99.90
1570;DHT22;778;50.120;8.698;2022-09-27T04:45:51;11.10;99.90
1570;DHT22;778;50.120;8.698;2022-09-27T04:48:20;11.10;99.90
1570;DHT22;778;50.120;8.698;2022-09-27T04:50:55;11.10;99.90
1570;DHT22;778;50.120;8.698;2022-09-27T04:53:24;11.10;99.90
1570;DHT22;778;50.120;8.698;2022-09-27T04:55:55;11.10;99.90
1570;DHT22;778;50.120;8.698;2022-09-27T04:58:24;11.20;99.90
1570;DHT22;778;50.120;8.698;2022-09-27T05:00:53;11.20;99.90
1570;DHT22;778;50.120;8.698;2022-09-27T05:03:40;11.10;99.90
1570;DHT22;778;50.120;8.698;2022-09-27T05:06:12;11.20;99.90
1570;DHT22;778;50.120;8.698;2022-09-27T05:08:41;11.20;99.90
1570;DHT22;778;50.120;8.698;2022-09-27T05:11:19;11.10;99.90
1570;DHT22;778;50.120;8.698;2022-09-27T05:14:06;11.20;99.90
1570;DHT22;778;50.120;8.698;2022-09-27T05:16:52;11.20;99.90
1570;DHT22;778;50.120;8.698;2022-09-27T05:19:30;11.10;99.90
1570;DHT22;778;50.120;8.698;2022-09-27T05:22:19;11.10;99.90
1570;DHT22;778;50.120;8.698;2022-09-27T05:24:47;11.10;99.90
1570;DHT22;778;50.120;8.698;2022-09-27T05:27:18;11.20;99.90
1570;DHT22;778;50.120;8.698;2022-09-27T05:29:47;11.10;99.90
1570;DHT22;778;50.120;8.698;2022-09-27T05:32:30;11.20;99.90
1570;DHT22;778;50.120;8.698;2022-09-27T05:35:22;11.20;99.90
1570;DHT22;778;50.120;8.698;2022-09-27T05:37:52;11.30;99.90
1570;DHT22;778;50.120;8.698;2022-09-27T05:40:22;11.20;99.90
1570;DHT22;778;50.120;8.698;2022-09-27T05:43:11;11.30;99.90
1570;DHT22;778;50.120;8.698;2022-09-27T05:45:39;11.30;99.90
1570;DHT22;778;50.120;8.698;2022-09-27T05:48:10;11.30;99.90
1570;DHT22;778;50.120;8.698;2022-09-27T05:50:54;11.30;99.90
1570;DHT22;778;50.120;8.698;2022-09-27T05:53:23;11.30;99.90
1570;DHT22;778;50.120;8.698;2022-09-27T05:55:53;11.40;99.90
1570;DHT22;778;50.120;8.698;2022-09-27T05:58:31;11.40;99.90
1570;DHT22;778;50.120;8.698;2022-09-27T06:01:16;11.50;99.90
1570;DHT22;778;50.120;8.698;2022-09-27T06:04:17;11.50;99.90
1570;DHT22;778;50.120;8.698;2022-09-27T06:07:11;11.50;99.90
1570;DHT22;778;50.120;8.698;2022-09-27T06:09:39;11.50;99.90
1570;DHT22;778;50.120;8.698;2022-09-27T06:12:10;11.50;99.90
1570;DHT22;778;50.120;8.698;2022-09-27T06:14:41;11.60;99.90
1570;DHT22;778;50.120;8.698;2022-09-27T06:17:16;11.60;99.90
1570;DHT22;778;50.120;8.698;2022-09-27T06:19:45;11.60;99.90
1570;DHT22;778;50.120;8.698;2022-09-27T06:22:15;11.60;99.90
1570;DHT22;778;50.120;8.698;2022-09-27T06:24:53;11.60;99.90
1570;DHT22;778;50.120;8.698;2022-09-27T06:27:24;11.60;99.90
1570;DHT22;778;50.120;8.698;2022-09-27T06:29:59;11.60;99.90
1570;DHT22;778;50.120;8.698;2022-09-27T06:32:40;11.60;99.90
1570;DHT22;778;50.120;8.698;2022-09-27T06:35:17;11.60;99.90
1570;DHT22;778;50.120;8.698;2022-09-27T06:37:45;11.60;99.90
1570;DHT22;778;50.120;8.698;2022-09-27T06:40:14;11.70;99.90
1570;DHT22;778;50.120;8.698;2022-09-27T06:43:03;11.60;99.90
1570;DHT22;778;50.120;8.698;2022-09-27T06:46:00;11.60;99.90
1570;DHT22;778;50.120;8.698;2022-09-27T06:48:52;11.60;99.90
1570;DHT22;778;50.120;8.698;2022-09-27T06:51:20;11.70;99.90
1570;DHT22;778;50.120;8.698;2022-09-27T06:53:49;11.60;99.90
1570;DHT22;778;50.120;8.698;2022-09-27T06:56:18;11.60;99.90
1570;DHT22;778;50.120;8.698;2022-09-27T06:58:49;11.60;99.90
1570;DHT22;778;50.120;8.698;2022-09-27T07:01:43;11.60;99.90
1570;DHT22;778;50.120;8.698;2022-09-27T07:04:41;11.60;99.90
1570;DHT22;778;50.120;8.698;2022-09-27T07:07:39;11.60;99.90
1570;DHT22;778;50.120;8.698;2022-09-27T07:10:10;11.70;99.90
1570;DHT22;778;50.120;8.698;2022-09-27T07:12:39;11.80;99.90
1570;DHT22;778;50.120;8.698;2022-09-27T07:15:09;11.80;99.90
1570;DHT22;778;50.120;8.698;2022-09-27T07:17:40;11.80;99.90
1570;DHT22;778;50.120;8.698;2022-09-27T07:20:09;11.80;99.90
1570;DHT22;778;50.120;8.698;2022-09-27T07:22:39;11.80;99.90
1570;DHT22;778;50.120;8.698;2022-09-27T07:25:10;11.80;99.90
1570;DHT22;778;50.120;8.698;2022-09-27T07:27:39;11.90;99.90
1570;DHT22;778;50.120;8.698;2022-09-27T07:30:10;11.90;99.90
1570;DHT22;778;50.120;8.698;2022-09-27T07:32:41;11.90;99.90
1570;DHT22;778;50.120;8.698;2022-09-27T07:35:12;11.80;99.90
1570;DHT22;778;50.120;8.698;2022-09-27T07:37:43;11.90;99.90
1570;DHT22;778;50.120;8.698;2022-09-27T07:40:13;11.90;99.90
1570;DHT22;778;50.120;8.698;2022-09-27T07:42:42;12.00;99.90
1570;DHT22;778;50.120;8.698;2022-09-27T07:45:11;12.00;99.90
1570;DHT22;778;50.120;8.698;2022-09-27T07:48:04;12.10;99.90
1570;DHT22;778;50.120;8.698;2022-09-27T07:51:00;12.00;99.90
1570;DHT22;778;50.120;8.698;2022-09-27T07:53:47;12.00;99.90
1570;DHT22;778;50.120;8.698;2022-09-27T07:56:45;12.10;99.90
1570;DHT22;778;50.120;8.698;2022-09-27T07:59:16;12.20;99.90
1570;DHT22;778;50.120;8.698;2022-09-27T08:01:44;12.20;99.90
1570;DHT22;778;50.120;8.698;2022-09-27T08:04:14;12.40;99.90
1570;DHT22;778;50.120;8.698;2022-09-27T08:06:43;12.90;99.90
1570;DHT22;778;50.120;8.698;2022-09-27T08:09:12;13.20;99.90
1570;DHT22;778;50.120;8.698;2022-09-27T08:11:41;13.60;99.90
1570;DHT22;778;50.120;8.698;2022-09-27T08:14:12;13.70;99.90
1570;DHT22;778;50.120;8.698;2022-09-27T08:16:43;13.90;99.90
1570;DHT22;778;50.120;8.698;2022-09-27T08:19:13;14.30;99.90
1570;DHT22;778;50.120;8.698;2022-09-27T08:22:03;14.50;99.90
1570;DHT22;778;50.120;8.698;2022-09-27T08:24:39;14.20;99.90
1570;DHT22;778;50.120;8.698;2022-09-27T08:27:40;14.00;99.90
1570;DHT22;778;50.120;8.698;2022-09-27T08:30:38;13.70;99.90
1570;DHT22;778;50.120;8.698;2022-09-27T08:33:08;13.50;99.90
1570;DHT22;778;50.120;8.698;2022-09-27T08:35:38;13.30;99.90
1570;DHT22;778;50.120;8.698;2022-09-27T08:38:08;13.40;99.90
1570;DHT22;778;50.120;8.698;2022-09-27T08:40:45;13.40;99.90
1570;DHT22;778;50.120;8.698;2022-09-27T08:43:29;13.40;99.90
1570;DHT22;778;50.120;8.698;2022-09-27T08:46:15;13.40;99.90
1570;DHT22;778;50.120;8.698;2022-09-27T08:48:53;13.30;99.90
1570;DHT22;778;50.120;8.698;2022-09-27T08:51:29;13.50;99.90
1570;DHT22;778;50.120;8.698;2022-09-27T08:54:01;13.60;99.90
1570;DHT22;778;50.120;8.698;2022-09-27T08:56:33;13.60;99.90
1570;DHT22;778;50.120;8.698;2022-09-27T08:59:09;13.50;99.90
1570;DHT22;778;50.120;8.698;2022-09-27T09:01:40;13.60;99.90
1570;DHT22;778;50.120;8.698;2022-09-27T09:04:25;13.40;99.90
1570;DHT22;778;50.120;8.698;2022-09-27T09:07:07;13.40;99.90
1570;DHT22;778;50.120;8.698;2022-09-27T09:09:48;13.40;99.90
1570;DHT22;778;50.120;8.698;2022-09-27T09:12:31;13.50;99.90
1570;DHT22;778;50.120;8.698;2022-09-27T09:15:33;13.50;99.90
1570;DHT22;778;50.120;8.698;2022-09-27T09:18:31;13.50;99.90
1570;DHT22;778;50.120;8.698;2022-09-27T09:21:23;13.60;99.90
1570;DHT22;778;50.120;8.698;2022-09-27T09:24:13;13.90;99.90
1570;DHT22;778;50.120;8.698;2022-09-27T09:26:55;14.40;99.90
1570;DHT22;778;50.120;8.698;2022-09-27T09:29:39;14.50;99.90
1570;DHT22;778;50.120;8.698;2022-09-27T09:32:30;14.70;99.90
1570;DHT22;778;50.120;8.698;2022-09-27T09:35:12;14.90;99.90
1570;DHT22;778;50.120;8.698;2022-09-27T09:37:46;15.00;99.90
1570;DHT22;778;50.120;8.698;2022-09-27T09:40:23;15.00;99.90
1570;DHT22;778;50.120;8.698;2022-09-27T09:42:57;15.30;99.90
1570;DHT22;778;50.120;8.698;2022-09-27T09:45:28;15.30;99.90
1570;DHT22;778;50.120;8.698;2022-09-27T09:48:06;15.30;99.90
1570;DHT22;778;50.120;8.698;2022-09-27T09:50:41;15.70;99.90
1570;DHT22;778;50.120;8.698;2022-09-27T09:53:18;15.30;99.90
1570;DHT22;778;50.120;8.698;2022-09-27T09:55:54;15.00;99.90
1570;DHT22;778;50.120;8.698;2022-09-27T09:58:28;14.80;99.90
1570;DHT22;778;50.120;8.698;2022-09-27T10:01:17;14.60;99.90
1570;DHT22;778;50.120;8.698;2022-09-27T10:03:46;14.60;99.90
1570;DHT22;778;50.120;8.698;2022-09-27T10:06:17;14.50;99.90
1570;DHT22;778;50.120;8.698;2022-09-27T10:08:46;14.50;99.90
1570;DHT22;778;50.120;8.698;2022-09-27T10:11:35;14.50;99.90
1570;DHT22;778;50.120;8.698;2022-09-27T10:14:15;14.70;99.90
1570;DHT22;778;50.120;8.698;2022-09-27T10:16:47;14.80;99.90
1570;DHT22;778;50.120;8.698;2022-09-27T10:19:22;14.90;99.90
1570;DHT22;778;50.120;8.698;2022-09-27T10:21:58;15.30;99.90
1570;DHT22;778;50.120;8.698;2022-09-27T10:24:52;15.60;99.90
1570;DHT22;778;50.120;8.698;2022-09-27T10:27:54;15.90;99.90
1570;DHT22;778;50.120;8.698;2022-09-27T10:30:31;16.10;99.90
1570;DHT22;778;50.120;8.698;2022-09-27T10:33:14;16.30;99.90
1570;DHT22;778;50.120;8.698;2022-09-27T10:35:52;16.50;99.90
1570;DHT22;778;50.120;8.698;2022-09-27T10:38:27;16.20;99.90
1570;DHT22;778;50.120;8.698;2022-09-27T10:41:21;16.00;99.90
1570;DHT22;778;50.120;8.698;2022-09-27T10:44:19;16.00;99.90
1570;DHT22;778;50.120;8.698;2022-09-27T10:47:22;16.00;99.90
1570;DHT22;778;50.120;8.698;2022-09-27T10:50:05;15.70;99.90
1570;DHT22;778;50.120;8.698;2022-09-27T10:53:03;15.50;99.90
1570;DHT22;778;50.120;8.698;2022-09-27T10:55:34;15.20;99.90
1570;DHT22;778;50.120;8.698;2022-09-27T10:58:14;15.20;99.90
1570;DHT22;778;50.120;8.698;2022-09-27T11:00:55;15.20;99.90
1570;DHT22;778;50.120;8.698;2022-09-27T11:03:29;15.10;99.90
1570;DHT22;778;50.120;8.698;2022-09-27T11:05:59;15.00;99.90
1570;DHT22;778;50.120;8.698;2022-09-27T11:08:46;14.90;99.90
1570;DHT22;778;50.120;8.698;2022-09-27T11:11:19;14.90;99.90
1570;DHT22;778;50.120;8.698;2022-09-27T11:13:59;15.10;99.90
1570;DHT22;778;50.120;8.698;2022-09-27T11:16:42;14.90;99.90
1570;DHT22;778;50.120;8.698;2022-09-27T11:19:35;15.00;99.90
1570;DHT22;778;50.120;8.698;2022-09-27T11:22:22;15.00;99.90
1570;DHT22;778;50.120;8.698;2022-09-27T11:25:06;15.00;99.90
1570;DHT22;778;50.120;8.698;2022-09-27T11:27:53;15.10;99.90
1570;DHT22;778;50.120;8.698;2022-09-27T11:30:35;15.00;99.90
1570;DHT22;778;50.120;8.698;2022-09-27T11:36:54;14.90;99.90
1570;DHT22;778;50.120;8.698;2022-09-27T11:39:41;15.10;99.90
1570;DHT22;778;50.120;8.698;2022-09-27T11:42:32;15.00;99.90
1570;DHT22;778;50.120;8.698;2022-09-27T11:45:23;15.10;99.90
1570;DHT22;778;50.120;8.698;2022-09-27T11:48:26;15.10;99.90
1570;DHT22;778;50.120;8.698;2022-09-27T11:51:33;15.20;99.90
1570;DHT22;778;50.120;8.698;2022-09-27T11:54:30;15.10;99.90
1570;DHT22;778;50.120;8.698;2022-09-27T11:57:14;15.10;99.90
1570;DHT22;778;50.120;8.698;2022-09-27T12:00:11;15.30;99.90
1570;DHT22;778;50.120;8.698;2022-09-27T12:03:18;15.50;99.90
1570;DHT22;778;50.120;8.698;2022-09-27T12:06:21;15.50;99.90
1570;DHT22;778;50.120;8.698;2022-09-27T12:09:03;15.40;99.90
1570;DHT22;778;50.120;8.698;2022-09-27T12:11:38;15.20;99.90
1570;DHT22;778;50.120;8.698;2022-09-27T12:14:15;15.20;99.90
1570;DHT22;778;50.120;8.698;2022-09-27T12:16:53;15.10;99.90
1570;DHT22;778;50.120;8.698;2022-09-27T12:19:27;15.40;99.90
1570;DHT22;778;50.120;8.698;2022-09-27T12:22:11;15.60;99.90
1570;DHT22;778;50.120;8.698;2022-09-27T12:24:45;15.70;99.90
1570;DHT22;778;50.120;8.698;2022-09-27T12:27:36;15.80;99.90
1570;DHT22;778;50.120;8.698;2022-09-27T12:30:11;16.00;99.90
1570;DHT22;778;50.120;8.698;2022-09-27T12:32:49;16.10;99.90
1570;DHT22;778;50.120;8.698;2022-09-27T12:35:22;16.20;99.90
1570;DHT22;778;50.120;8.698;2022-09-27T12:37:57;16.00;99.90
1570;DHT22;778;50.120;8.698;2022-09-27T12:40:31;15.80;99.90
1570;DHT22;778;50.120;8.698;2022-09-27T12:43:11;15.70;99.90
1570;DHT22;778;50.120;8.698;2022-09-27T12:46:02;15.60;99.90
1570;DHT22;778;50.120;8.698;2022-09-27T12:48:40;15.50;99.90
1570;DHT22;778;50.120;8.698;2022-09-27T12:51:13;15.60;99.90
1570;DHT22;778;50.120;8.698;2022-09-27T12:53:59;15.50;99.90
1570;DHT22;778;50.120;8.698;2022-09-27T12:56:44;15.40;99.90
1570;DHT22;778;50.120;8.698;2022-09-27T12:59:44;15.40;99.90
1570;DHT22;778;50.120;8.698;2022-09-27T13:02:49;15.40;99.90
1570;DHT22;778;50.120;8.698;2022-09-27T13:06:14;15.30;99.90
1570;DHT22;778;50.120;8.698;2022-09-27T13:09:16;15.30;99.90
1570;DHT22;778;50.120;8.698;2022-09-27T13:12:00;15.30;99.90
1570;DHT22;778;50.120;8.698;2022-09-27T13:14:34;15.20;99.90
1570;DHT22;778;50.120;8.698;2022-09-27T13:20:40;14.90;99.90
1570;DHT22;778;50.120;8.698;2022-09-27T13:26:49;15.00;99.90
1570;DHT22;778;50.120;8.698;2022-09-27T13:29:24;15.00;99.90
1570;DHT22;778;50.120;8.698;2022-09-27T13:32:13;15.10;99.90
1570;DHT22;778;50.120;8.698;2022-09-27T13:35:16;15.00;99.90
1570;DHT22;778;50.120;8.698;2022-09-27T13:37:52;15.00;99.90
1570;DHT22;778;50.120;8.698;2022-09-27T13:40:38;15.10;99.90
1570;DHT22;778;50.120;8.698;2022-09-27T13:43:37;15.10;99.90
1570;DHT22;778;50.120;8.698;2022-09-27T13:46:34;15.10;99.90
1570;DHT22;778;50.120;8.698;2022-09-27T13:49:11;14.90;99.90
1570;DHT22;778;50.120;8.698;2022-09-27T13:52:02;14.90;99.90
1570;DHT22;778;50.120;8.698;2022-09-27T13:54:49;14.80;99.90
1570;DHT22;778;50.120;8.698;2022-09-27T13:57:41;14.70;99.90
1570;DHT22;778;50.120;8.698;2022-09-27T14:00:19;14.70;99.90
1570;DHT22;778;50.120;8.698;2022-09-27T14:02:59;14.70;99.90
1570;DHT22;778;50.120;8.698;2022-09-27T14:05:37;14.70;99.90
1570;DHT22;778;50.120;8.698;2022-09-27T14:08:18;14.60;99.90
1570;DHT22;778;50.120;8.698;2022-09-27T14:10:51;14.60;99.90
1570;DHT22;778;50.120;8.698;2022-09-27T14:13:23;14.60;99.90
1570;DHT22;778;50.120;8.698;2022-09-27T14:16:03;14.60;99.90
1570;DHT22;778;50.120;8.698;2022-09-27T14:18:42;14.60;99.90
1570;DHT22;778;50.120;8.698;2022-09-27T14:21:26;14.70;99.90
1570;DHT22;778;50.120;8.698;2022-09-27T14:24:29;14.70;99.90
1570;DHT22;778;50.120;8.698;2022-09-27T14:27:10;14.60;99.90
1570;DHT22;778;50.120;8.698;2022-09-27T14:29:48;14.60;99.90
1570;DHT22;778;50.120;8.698;2022-09-27T14:32:24;14.60;99.90
1570;DHT22;778;50.120;8.698;2022-09-27T14:35:06;14.60;99.90
1570;DHT22;778;50.120;8.698;2022-09-27T14:37:59;14.70;99.90
1570;DHT22;778;50.120;8.698;2022-09-27T14:40:57;14.60;99.90
1570;DHT22;778;50.120;8.698;2022-09-27T14:43:27;14.50;99.90
1570;DHT22;778;50.120;8.698;2022-09-27T14:46:01;14.60;99.90
1570;DHT22;778;50.120;8.698;2022-09-27T14:48:35;14.60;99.90
1570;DHT22;778;50.120;8.698;2022-09-27T14:51:18;14.60;99.90
1570;DHT22;778;50.120;8.698;2022-09-27T14:53:50;14.70;99.90
1570;DHT22;778;50.120;8.698;2022-09-27T14:56:24;14.70;99.90
1570;DHT22;778;50.120;8.698;2022-09-27T14:58:57;14.70;99.90
1570;DHT22;778;50.120;8.698;2022-09-27T15:01:30;14.60;99.90
1570;DHT22;778;50.120;8.698;2022-09-27T15:04:04;14.70;99.90
1570;DHT22;778;50.120;8.698;2022-09-27T15:06:35;14.60;99.90
1570;DHT22;778;50.120;8.698;2022-09-27T15:09:05;14.40;99.90
1570;DHT22;778;50.120;8.698;2022-09-27T15:11:37;14.50;99.90
1570;DHT22;778;50.120;8.698;2022-09-27T15:14:12;14.40;99.90
1570;DHT22;778;50.120;8.698;2022-09-27T15:16:44;14.40;99.90
1570;DHT22;778;50.120;8.698;2022-09-27T15:19:15;14.40;99.90
1570;DHT22;778;50.120;8.698;2022-09-27T15:21:44;14.40;99.90
1570;DHT22;778;50.120;8.698;2022-09-27T15:24:34;14.40;99.90
1570;DHT22;778;50.120;8.698;2022-09-27T15:27:11;14.40;99.90
1570;DHT22;778;50.120;8.698;2022-09-27T15:29:41;14.20;99.90
1570;DHT22;778;50.120;8.698;2022-09-27T15:32:15;14.30;99.90
1570;DHT22;778;50.120;8.698;2022-09-27T15:34:44;14.20;99.90
1570;DHT22;778;50.120;8.698;2022-09-27T15:37:25;14.00;99.90
1570;DHT22;778;50.120;8.698;2022-09-27T15:39:56;13.90;99.90
1570;DHT22;778;50.120;8.698;2022-09-27T15:42:56;13.80;99.90
1570;DHT22;778;50.120;8.698;2022-09-27T15:45:29;13.60;99.90
1570;DHT22;778;50.120;8.698;2022-09-27T15:48:12;13.50;99.90
1570;DHT22;778;50.120;8.698;2022-09-27T15:50:42;13.40;99.90
1570;DHT22;778;50.120;8.698;2022-09-27T15:53:12;13.40;99.90
1570;DHT22;778;50.120;8.698;2022-09-27T15:56:13;13.40;99.90
1570;DHT22;778;50.120;8.698;2022-09-27T15:58:42;13.30;99.90
1570;DHT22;778;50.120;8.698;2022-09-27T16:01:17;13.10;99.90
1570;DHT22;778;50.120;8.698;2022-09-27T16:03:49;13.20;99.90
1570;DHT22;778;50.120;8.698;2022-09-27T16:06:17;13.20;99.90
1570;DHT22;778;50.120;8.698;2022-09-27T16:08:46;13.10;99.90
1570;DHT22;778;50.120;8.698;2022-09-27T16:11:15;13.10;99.90
1570;DHT22;778;50.120;8.698;2022-09-27T16:13:44;13.00;99.90
1570;DHT22;778;50.120;8.698;2022-09-27T16:16:17;13.00;99.90
1570;DHT22;778;50.120;8.698;2022-09-27T16:18:48;13.00;99.90
1570;DHT22;778;50.120;8.698;2022-09-27T16:21:17;13.00;99.90
1570;DHT22;778;50.120;8.698;2022-09-27T16:23:45;12.90;99.90
1570;DHT22;778;50.120;8.698;2022-09-27T16:26:13;12.60;99.90
1570;DHT22;778;50.120;8.698;2022-09-27T16:28:42;12.50;99.90
1570;DHT22;778;50.120;8.698;2022-09-27T16:31:11;12.50;99.90
1570;DHT22;778;50.120;8.698;2022-09-27T16:33:43;12.40;99.90
1570;DHT22;778;50.120;8.698;2022-09-27T16:36:12;12.40;99.90
1570;DHT22;778;50.120;8.698;2022-09-27T16:38:48;12.30;99.90
1570;DHT22;778;50.120;8.698;2022-09-27T16:41:17;12.40;99.90
1570;DHT22;778;50.120;8.698;2022-09-27T16:43:46;12.40;99.90
1570;DHT22;778;50.120;8.698;2022-09-27T16:46:15;12.40;99.90
1570;DHT22;778;50.120;8.698;2022-09-27T16:48:46;12.40;99.90
1570;DHT22;778;50.120;8.698;2022-09-27T16:51:18;12.50;99.90
1570;DHT22;778;50.120;8.698;2022-09-27T16:54:06;12.50;99.90
1570;DHT22;778;50.120;8.698;2022-09-27T16:56:35;12.60;99.90
1570;DHT22;778;50.120;8.698;2022-09-27T16:59:04;12.60;99.90
1570;DHT22;778;50.120;8.698;2022-09-27T17:01:33;12.60;99.90
1570;DHT22;778;50.120;8.698;2022-09-27T17:04:02;12.50;99.90
1570;DHT22;778;50.120;8.698;2022-09-27T17:06:32;12.50;99.90
1570;DHT22;778;50.120;8.698;2022-09-27T17:09:01;12.50;99.90
1570;DHT22;778;50.120;8.698;2022-09-27T17:11:31;12.50;99.90
1570;DHT22;778;50.120;8.698;2022-09-27T17:13:59;12.40;99.90
1570;DHT22;778;50.120;8.698;2022-09-27T17:16:28;12.40;99.90
1570;DHT22;778;50.120;8.698;2022-09-27T17:18:57;12.30;99.90
1570;DHT22;778;50.120;8.698;2022-09-27T17:21:25;12.30;99.90
1570;DHT22;778;50.120;8.698;2022-09-27T17:23:55;12.30;99.90
1570;DHT22;778;50.120;8.698;2022-09-27T17:26:24;12.20;99.90
1570;DHT22;778;50.120;8.698;2022-09-27T17:28:57;12.10;99.90
1570;DHT22;778;50.120;8.698;2022-09-27T17:31:27;12.00;99.90
1570;DHT22;778;50.120;8.698;2022-09-27T17:33:57;11.80;99.90
1570;DHT22;778;50.120;8.698;2022-09-27T17:36:27;11.90;99.90
1570;DHT22;778;50.120;8.698;2022-09-27T17:39:01;11.90;99.90
1570;DHT22;778;50.120;8.698;2022-09-27T17:41:30;11.90;99.90
1570;DHT22;778;50.120;8.698;2022-09-27T17:44:05;11.80;99.90
1570;DHT22;778;50.120;8.698;2022-09-27T17:46:35;11.80;99.90